createdAt,value
2019-04-06T00:01:33.851Z,39.37
2019-04-06T00:04:00.176Z,38.99
2019-04-06T00:06:26.466Z,39.20
2019-04-06T00:08:52.638Z,38.46
2019-04-06T00:11:18.837Z,39.61
2019-04-06T00:13:45.149Z,40.41
2019-04-06T00:16:11.440Z,39.33
2019-04-06T00:18:37.744Z,40.33
2019-04-06T00:21:03.909Z,39.36
2019-04-06T00:23:30.175Z,38.92
2019-04-06T00:25:56.365Z,39.07
2019-04-06T00:28:22.673Z,39.25
2019-04-06T00:30:56.385Z,40.27
2019-04-06T00:33:27.456Z,40.12
2019-04-06T00:35:53.634Z,38.85
2019-04-06T00:38:19.896Z,38.43
2019-04-06T00:40:46.219Z,38.37
2019-04-06T00:43:12.394Z,38.57
2019-04-06T00:45:38.673Z,38.55
2019-04-06T00:48:04.895Z,38.74
2019-04-06T00:50:31.074Z,37.82
2019-04-06T00:52:57.357Z,38.29
2019-04-06T00:55:23.733Z,38.29
2019-04-06T00:57:50.019Z,38.04
2019-04-06T01:00:16.755Z,37.85
2019-04-06T01:02:43.090Z,37.92
2019-04-06T01:05:09.431Z,38.08
2019-04-06T01:07:35.748Z,39.14
2019-04-06T01:10:01.991Z,39.53
2019-04-06T01:12:28.161Z,40.69
2019-04-06T01:14:55.130Z,39.29
2019-04-06T01:17:21.492Z,40.37
2019-04-06T01:19:47.759Z,39.09
2019-04-06T01:22:13.913Z,39.08
2019-04-06T01:24:40.120Z,38.69
2019-04-06T01:27:06.288Z,39.37
2019-04-06T01:29:32.472Z,41.07
2019-04-06T01:31:58.797Z,40.43
2019-04-06T01:34:25.172Z,40.71
2019-04-06T01:36:51.464Z,39.36
2019-04-06T01:39:17.680Z,39.30
2019-04-06T01:41:43.970Z,38.47
2019-04-06T01:44:10.254Z,38.11
2019-04-06T01:46:36.468Z,38.10
2019-04-06T01:49:02.744Z,39.41
2019-04-06T01:51:28.911Z,39.17
2019-04-06T01:53:55.103Z,39.95
2019-04-06T01:56:21.397Z,38.87
2019-04-06T01:58:47.572Z,38.27
2019-04-06T02:01:15.669Z,37.85
2019-04-06T02:03:41.850Z,38.71
2019-04-06T02:06:08.135Z,39.27
2019-04-06T02:08:34.432Z,39.18
2019-04-06T02:11:00.618Z,38.81
2019-04-06T02:13:26.898Z,39.33
2019-04-06T02:15:53.354Z,40.21
2019-04-06T02:18:19.699Z,39.72
2019-04-06T02:20:45.920Z,39.42
2019-04-06T02:23:12.184Z,39.93
2019-04-06T02:25:39.175Z,39.92
2019-04-06T02:28:05.764Z,40.85
2019-04-06T02:30:36.787Z,41.56
2019-04-06T02:33:21.242Z,40.96
2019-04-06T02:35:49.369Z,40.80
2019-04-06T02:38:35.857Z,39.93
2019-04-06T02:41:06.769Z,40.74
2019-04-06T02:43:34.986Z,41.98
2019-04-06T02:46:01.254Z,41.14
2019-04-06T02:48:27.647Z,40.91
2019-04-06T02:50:53.824Z,41.66
2019-04-06T02:53:20.025Z,41.44
2019-04-06T02:55:46.304Z,43.37
2019-04-06T02:58:12.490Z,42.71
2019-04-06T03:00:38.694Z,42.79
2019-04-06T03:03:04.866Z,42.11
2019-04-06T03:05:31.028Z,41.64
2019-04-06T03:07:57.208Z,43.56
2019-04-06T03:10:23.428Z,41.92
2019-04-06T03:12:49.700Z,43.42
2019-04-06T03:15:15.877Z,41.54
2019-04-06T03:17:42.403Z,42.39
2019-04-06T03:20:08.980Z,42.61
2019-04-06T03:22:35.325Z,41.75
2019-04-06T03:25:01.559Z,42.32
2019-04-06T03:27:27.698Z,42.28
2019-04-06T03:29:58.347Z,44.53
2019-04-06T03:32:22.017Z,42.25
2019-04-06T03:34:48.195Z,42.49
2019-04-06T03:37:14.373Z,41.81
2019-04-06T03:39:40.567Z,43.04
2019-04-06T03:42:10.356Z,42.48
2019-04-06T03:44:35.113Z,42.02
2019-04-06T03:47:01.328Z,43.85
2019-04-06T03:49:27.528Z,45.64
2019-04-06T03:51:53.648Z,43.31
2019-04-06T03:54:19.981Z,44.13
2019-04-06T03:56:46.398Z,45.06
2019-04-06T03:59:12.714Z,45.13
2019-04-06T04:01:38.912Z,44.93
2019-04-06T04:04:05.082Z,44.04
2019-04-06T04:06:31.353Z,44.89
2019-04-06T04:08:57.566Z,42.60
2019-04-06T04:11:24.023Z,42.96
2019-04-06T04:13:50.224Z,42.84
2019-04-06T04:16:16.444Z,43.65
2019-04-06T04:18:42.938Z,43.71
2019-04-06T04:21:09.109Z,39.78
2019-04-06T04:23:35.420Z,38.82
2019-04-06T04:26:01.707Z,37.76
2019-04-06T04:28:27.857Z,34.48
2019-04-06T04:30:54.218Z,34.60
2019-04-06T04:33:20.441Z,33.71
2019-04-06T04:35:46.786Z,33.04
2019-04-06T04:38:13.211Z,34.88
2019-04-06T04:40:39.370Z,32.94
2019-04-06T04:43:05.673Z,34.08
2019-04-06T04:45:31.874Z,36.18
2019-04-06T04:47:58.082Z,36.93
2019-04-06T04:50:24.382Z,37.85
2019-04-06T04:52:50.590Z,36.72
2019-04-06T04:55:16.770Z,32.49
2019-04-06T04:57:45.091Z,29.47
2019-04-06T05:00:11.782Z,27.94
2019-04-06T05:02:38.016Z,26.72
2019-04-06T05:05:05.383Z,28.37
2019-04-06T05:07:31.586Z,27.80
2019-04-06T05:09:57.760Z,26.11
2019-04-06T05:12:23.937Z,25.73
2019-04-06T05:15:03.482Z,29.18
2019-04-06T05:17:30.062Z,30.94
2019-04-06T05:19:56.446Z,28.57
2019-04-06T05:22:22.767Z,30.73
2019-04-06T05:24:48.929Z,30.66
2019-04-06T05:27:15.223Z,31.57
2019-04-06T05:29:41.530Z,29.35
2019-04-06T05:32:07.693Z,27.09
2019-04-06T05:34:33.862Z,25.97
2019-04-06T05:37:00.199Z,26.54
2019-04-06T05:39:26.490Z,26.23
2019-04-06T05:41:52.747Z,26.80
2019-04-06T05:44:18.935Z,25.60
2019-04-06T05:46:45.284Z,25.92
2019-04-06T05:49:11.518Z,27.50
2019-04-06T05:51:37.850Z,27.82
2019-04-06T05:54:04.038Z,25.95
2019-04-06T05:56:30.325Z,27.03
2019-04-06T05:58:59.843Z,25.50
2019-04-06T06:01:26.109Z,26.28
2019-04-06T06:03:52.398Z,24.70
2019-04-06T06:06:18.581Z,24.80
2019-04-06T06:08:44.755Z,25.53
2019-04-06T06:11:11.031Z,25.58
2019-04-06T06:13:39.167Z,24.31
2019-04-06T06:16:05.427Z,24.21
2019-04-06T06:18:32.471Z,26.04
2019-04-06T06:20:58.740Z,25.80
2019-04-06T06:23:24.917Z,27.65
2019-04-06T06:25:51.263Z,27.98
2019-04-06T06:28:19.412Z,28.89
2019-04-06T06:30:45.590Z,28.97
2019-04-06T06:33:11.784Z,30.19
2019-04-06T06:35:38.113Z,29.72
2019-04-06T06:38:05.233Z,28.44
2019-04-06T06:40:31.407Z,30.60
2019-04-06T06:42:57.717Z,28.38
2019-04-06T06:45:23.884Z,27.87
2019-04-06T06:47:53.041Z,27.01
2019-04-06T06:50:19.262Z,28.22
2019-04-06T06:52:45.571Z,29.76
2019-04-06T06:55:11.904Z,27.83
2019-04-06T06:57:38.221Z,28.06
2019-04-06T07:00:05.305Z,27.79
2019-04-06T07:02:31.564Z,28.22
2019-04-06T07:04:57.758Z,26.30
2019-04-06T07:07:23.938Z,24.48
2019-04-06T07:09:50.187Z,24.01
2019-04-06T07:12:16.439Z,24.07
2019-04-06T07:14:42.594Z,26.21
2019-04-06T07:17:08.904Z,26.29
2019-04-06T07:19:35.096Z,26.53
2019-04-06T07:22:01.641Z,27.37
2019-04-06T07:24:27.846Z,25.62
2019-04-06T07:26:54.224Z,26.21
2019-04-06T07:29:20.438Z,26.08
2019-04-06T07:31:46.615Z,26.36
2019-04-06T07:34:12.835Z,25.43
2019-04-06T07:36:39.126Z,25.15
2019-04-06T07:39:05.285Z,25.14
2019-04-06T07:41:31.490Z,26.24
2019-04-06T07:43:57.662Z,26.42
2019-04-06T07:46:23.860Z,25.85
2019-04-06T07:48:50.128Z,26.81
2019-04-06T07:51:16.411Z,26.50
2019-04-06T07:53:42.667Z,25.44
2019-04-06T07:56:08.880Z,25.67
2019-04-06T07:58:35.166Z,25.94
2019-04-06T08:01:01.484Z,24.93
2019-04-06T08:03:27.660Z,25.10
2019-04-06T08:05:53.935Z,24.40
2019-04-06T08:08:20.114Z,25.64
2019-04-06T08:10:47.128Z,25.02
2019-04-06T08:13:13.292Z,22.70
2019-04-06T08:15:39.573Z,22.32
2019-04-06T08:18:05.803Z,22.21
2019-04-06T08:20:31.938Z,22.53
2019-04-06T08:22:58.336Z,23.75
2019-04-06T08:25:24.553Z,25.01
2019-04-06T08:27:50.734Z,25.62
2019-04-06T08:30:16.993Z,24.52
2019-04-06T08:32:43.309Z,25.10
2019-04-06T08:35:10.083Z,24.05
2019-04-06T08:37:36.515Z,24.78
2019-04-06T08:40:05.367Z,24.54
2019-04-06T08:42:31.859Z,23.02
2019-04-06T08:44:58.220Z,23.32
2019-04-06T08:47:24.544Z,21.80
2019-04-06T08:49:50.829Z,21.26
2019-04-06T08:52:16.989Z,21.11
2019-04-06T08:54:43.207Z,21.15
2019-04-06T08:57:09.509Z,20.94
2019-04-06T08:59:35.817Z,20.18
2019-04-06T09:02:02.196Z,19.36
2019-04-06T09:04:28.464Z,20.16
2019-04-06T09:06:54.751Z,22.21
2019-04-06T09:09:20.926Z,22.37
2019-04-06T09:11:47.240Z,22.37
2019-04-06T09:14:13.488Z,22.10
2019-04-06T09:16:39.739Z,22.03
2019-04-06T09:19:06.148Z,21.38
2019-04-06T09:21:32.471Z,21.67
2019-04-06T09:23:59.300Z,21.81
2019-04-06T09:26:25.872Z,20.44
2019-04-06T09:28:52.137Z,20.04
2019-04-06T09:31:18.387Z,19.84
2019-04-06T09:33:44.645Z,20.67
2019-04-06T09:36:10.965Z,20.05
2019-04-06T09:38:37.159Z,20.49
2019-04-06T09:41:03.459Z,21.40
2019-04-06T09:43:30.536Z,21.54
2019-04-06T09:46:15.669Z,19.87
2019-04-06T09:49:00.381Z,18.42
2019-04-06T09:51:31.660Z,18.20
2019-04-06T09:54:06.663Z,18.18
2019-04-06T09:56:49.645Z,19.97
2019-04-06T09:59:17.730Z,20.69
2019-04-06T10:01:54.826Z,18.47
2019-04-06T10:04:39.674Z,18.64
2019-04-06T10:07:07.954Z,20.18
2019-04-06T10:09:50.886Z,21.40
2019-04-06T10:12:34.531Z,20.13
2019-04-06T10:15:05.418Z,18.86
2019-04-06T10:17:39.256Z,18.94
2019-04-06T10:20:14.784Z,18.86
2019-04-06T10:22:49.344Z,18.51
2019-04-06T10:25:34.400Z,19.76
2019-04-06T10:28:08.581Z,19.58
2019-04-06T10:30:36.646Z,18.41
2019-04-06T10:33:07.543Z,17.35
2019-04-06T10:35:44.945Z,17.39
2019-04-06T10:38:25.105Z,16.29
2019-04-06T10:40:59.254Z,17.59
2019-04-06T10:43:30.378Z,16.64
2019-04-06T10:46:01.371Z,15.89
2019-04-06T10:48:29.509Z,15.70
2019-04-06T10:51:03.903Z,16.65
2019-04-06T10:53:31.942Z,16.90
2019-04-06T10:56:02.916Z,18.40
2019-04-06T10:58:47.318Z,17.40
2019-04-06T11:01:30.351Z,16.55
2019-04-06T11:04:00.969Z,15.57
2019-04-06T11:06:46.893Z,15.43
2019-04-06T11:09:17.928Z,16.13
2019-04-06T11:11:46.047Z,16.97
2019-04-06T11:14:14.211Z,17.82
2019-04-06T11:16:48.361Z,17.28
2019-04-06T11:19:33.021Z,16.06
2019-04-06T11:24:53.728Z,15.48
2019-04-06T11:27:39.121Z,16.32
2019-04-06T11:30:13.583Z,16.26
2019-04-06T11:32:41.640Z,16.61
2019-04-06T11:35:15.502Z,16.89
2019-04-06T11:38:00.211Z,17.19
2019-04-06T11:40:30.789Z,16.49
2019-04-06T11:43:04.518Z,17.44
2019-04-06T11:45:32.704Z,16.93
2019-04-06T11:48:17.314Z,16.96
2019-04-06T11:51:01.741Z,16.11
2019-04-06T11:53:29.871Z,16.52
2019-04-06T11:55:58.049Z,16.14
2019-04-06T11:58:32.081Z,15.00
2019-04-06T12:01:01.286Z,15.21
2019-04-06T12:03:46.462Z,16.64
2019-04-06T12:06:14.538Z,17.05
2019-04-06T12:08:42.798Z,15.62
2019-04-06T12:11:13.444Z,15.80
2019-04-06T12:13:41.535Z,16.50
2019-04-06T12:16:25.901Z,17.31
2019-04-06T12:18:59.539Z,17.20
2019-04-06T12:24:19.427Z,16.81
2019-04-06T12:26:53.306Z,17.20
2019-04-06T12:29:33.234Z,16.75
2019-04-06T12:32:01.770Z,16.99
2019-04-06T12:37:26.095Z,15.57
2019-04-06T12:39:54.763Z,16.44
2019-04-06T12:42:23.053Z,18.18
2019-04-06T12:44:54.191Z,18.53
2019-04-06T12:47:25.363Z,17.96
2019-04-06T12:50:09.784Z,17.60
2019-04-06T12:55:47.688Z,17.20
2019-04-06T12:58:15.768Z,17.50
2019-04-06T13:00:56.057Z,18.25
2019-04-06T13:03:24.188Z,18.24
2019-04-06T13:08:55.157Z,17.29
2019-04-06T13:11:39.896Z,16.15
2019-04-06T13:14:10.947Z,16.82
2019-04-06T13:16:39.111Z,16.99
2019-04-06T13:19:23.528Z,16.98
2019-04-06T13:21:51.679Z,16.75
2019-04-06T13:24:29.009Z,16.65
2019-04-06T13:27:08.941Z,16.97
2019-04-06T13:29:40.196Z,18.17
2019-04-06T13:32:08.242Z,18.63
2019-04-06T13:34:36.322Z,19.17
2019-04-06T13:37:19.503Z,19.02
2019-04-06T13:39:47.578Z,18.52
2019-04-06T13:42:24.544Z,18.21
2019-04-06T13:44:52.578Z,18.53
2019-04-06T13:47:32.503Z,19.62
2019-04-06T13:50:06.646Z,20.71
2019-04-06T13:52:51.686Z,21.15
2019-04-06T13:55:28.491Z,20.43
2019-04-06T13:58:08.632Z,19.63
2019-04-06T14:00:51.909Z,20.76
2019-04-06T14:03:36.617Z,20.77
2019-04-06T14:06:10.530Z,21.51
2019-04-06T14:08:38.659Z,21.53
2019-04-06T14:11:12.543Z,20.26
2019-04-06T14:13:46.587Z,20.50
2019-04-06T14:16:17.320Z,22.66
2019-04-06T14:18:45.454Z,21.74
2019-04-06T14:21:16.565Z,22.04
2019-04-06T14:23:44.647Z,22.30
2019-04-06T14:26:21.886Z,22.04
2019-04-06T14:28:52.914Z,23.33
2019-04-06T14:31:29.873Z,22.31
2019-04-06T14:34:12.491Z,22.39
2019-04-06T14:36:46.394Z,23.05
2019-04-06T14:39:26.182Z,23.70
2019-04-06T14:42:02.845Z,22.80
2019-04-06T14:47:38.228Z,21.66
2019-04-06T14:50:23.059Z,21.46
2019-04-06T14:53:08.237Z,22.52
2019-04-06T14:55:54.552Z,23.49
2019-04-06T14:58:28.611Z,23.79
2019-04-06T15:01:05.526Z,23.46
2019-04-06T15:03:45.790Z,22.29
2019-04-06T15:06:13.869Z,23.76
2019-04-06T15:08:53.962Z,24.27
2019-04-06T15:11:28.117Z,23.17
2019-04-06T15:14:05.033Z,24.09
2019-04-06T15:16:33.463Z,23.82
2019-04-06T15:19:04.892Z,22.64
2019-04-06T15:21:49.269Z,23.40
2019-04-06T15:24:29.225Z,24.22
2019-04-06T15:27:03.330Z,24.03
2019-04-06T15:29:31.428Z,23.82
2019-04-06T15:32:03.440Z,23.35
2019-04-06T15:34:48.284Z,24.14
2019-04-06T15:37:16.399Z,24.15
2019-04-06T15:42:40.363Z,23.23
2019-04-06T15:45:08.645Z,22.56
2019-04-06T15:47:39.785Z,22.84
2019-04-06T15:50:11.417Z,23.71
2019-04-06T15:52:39.912Z,24.78
2019-04-06T15:55:08.840Z,24.05
2019-04-06T15:57:37.011Z,24.29
2019-04-06T16:00:08.717Z,23.16
2019-04-06T16:02:53.396Z,24.11
2019-04-06T16:05:30.337Z,24.20
2019-04-06T16:08:13.580Z,24.25
2019-04-06T16:13:32.185Z,23.35
2019-04-06T16:16:09.275Z,23.46
2019-04-06T16:18:37.445Z,24.18
2019-04-06T16:21:08.405Z,23.72
2019-04-06T16:23:48.518Z,23.32
2019-04-06T16:26:19.755Z,24.42
2019-04-06T16:29:04.999Z,25.98
2019-04-06T16:31:35.583Z,27.36
2019-04-06T16:34:20.818Z,25.02
2019-04-06T16:36:49.008Z,25.25
2019-04-06T16:39:33.487Z,24.82
2019-04-06T16:42:01.861Z,25.27
2019-04-06T16:44:30.444Z,26.44
2019-04-06T16:46:58.556Z,27.22
2019-04-06T16:49:35.826Z,27.73
2019-04-06T16:52:12.935Z,26.41
2019-04-06T16:54:41.222Z,25.57
2019-04-06T16:57:26.522Z,27.07
2019-04-06T17:00:00.511Z,26.09
2019-04-06T17:02:45.626Z,26.25
2019-04-06T17:05:23.121Z,27.35
2019-04-06T17:08:11.167Z,26.69
2019-04-06T17:10:38.946Z,26.12
2019-04-06T17:13:09.749Z,25.93
2019-04-06T17:15:41.076Z,27.63
2019-04-06T17:18:12.129Z,27.85
2019-04-06T17:20:48.839Z,26.57
2019-04-06T17:23:16.957Z,26.80
2019-04-06T17:25:49.558Z,26.49
2019-04-06T17:28:34.092Z,27.17
2019-04-06T17:31:17.358Z,28.46
2019-04-06T17:33:57.728Z,27.71
2019-04-06T17:36:42.328Z,27.33
2019-04-06T17:39:10.469Z,28.61
2019-04-06T17:44:46.053Z,28.05
2019-04-06T17:47:19.837Z,28.56
2019-04-06T17:50:03.190Z,28.16
2019-04-06T17:52:37.075Z,29.20
2019-04-06T17:55:15.627Z,28.62
2019-04-06T17:57:43.811Z,28.91
2019-04-06T18:00:15.305Z,29.11
2019-04-06T18:02:59.733Z,28.45
2019-04-06T18:05:28.200Z,28.39
2019-04-06T18:08:05.955Z,29.94
2019-04-06T18:10:52.795Z,29.13
2019-04-06T18:13:23.793Z,29.01
2019-04-06T18:15:49.951Z,29.58
2019-04-06T18:18:16.328Z,29.06
2019-04-06T18:20:42.623Z,30.62
2019-04-06T18:23:08.796Z,29.70
2019-04-06T18:25:34.959Z,29.04
2019-04-06T18:28:01.583Z,29.82
2019-04-06T18:30:27.952Z,29.79
2019-04-06T18:33:03.666Z,30.67
2019-04-06T18:35:30.012Z,29.75
2019-04-06T18:37:58.105Z,29.51
2019-04-06T18:40:26.327Z,29.98
2019-04-06T18:42:53.172Z,30.30
2019-04-06T18:45:19.472Z,30.35
2019-04-06T18:47:46.224Z,29.57
2019-04-06T18:50:12.932Z,30.97
2019-04-06T18:52:39.166Z,29.34
2019-04-06T18:55:05.543Z,28.48
2019-04-06T18:57:32.193Z,28.95
2019-04-06T18:59:58.528Z,28.94
2019-04-06T19:02:24.826Z,29.24
2019-04-06T19:04:51.020Z,29.29
2019-04-06T19:07:17.566Z,30.63
2019-04-06T19:09:44.137Z,29.91
2019-04-06T19:12:10.723Z,28.99
2019-04-06T19:14:37.220Z,29.20
2019-04-06T19:17:03.687Z,31.24
2019-04-06T19:19:29.880Z,30.06
2019-04-06T19:21:56.062Z,31.08
2019-04-06T19:24:22.353Z,30.06
2019-04-06T19:26:48.899Z,29.99
2019-04-06T19:29:15.336Z,30.39
2019-04-06T19:31:41.490Z,30.59
2019-04-06T19:34:07.821Z,30.32
2019-04-06T19:36:34.066Z,30.15
2019-04-06T19:39:00.621Z,30.04
2019-04-06T19:41:27.151Z,29.98
2019-04-06T19:43:53.585Z,30.23
2019-04-06T19:46:20.219Z,30.74
2019-04-06T19:48:47.008Z,31.74
2019-04-06T19:51:13.441Z,31.53
2019-04-06T19:53:40.041Z,30.44
2019-04-06T19:56:06.533Z,29.87
2019-04-06T19:58:32.746Z,29.46
2019-04-06T20:00:59.020Z,29.62
2019-04-06T20:03:34.114Z,30.81
2019-04-06T20:05:53.306Z,32.19
2019-04-06T20:08:19.503Z,31.25
2019-04-06T20:10:45.719Z,32.00
2019-04-06T20:13:12.118Z,30.88
2019-04-06T20:15:38.828Z,30.02
2019-04-06T20:18:05.421Z,30.01
2019-04-06T20:20:31.583Z,30.30
2019-04-06T20:22:58.111Z,31.54
2019-04-06T20:25:25.214Z,30.78
2019-04-06T20:27:52.163Z,32.21
2019-04-06T20:30:18.853Z,31.82
2019-04-06T20:32:45.161Z,33.04
2019-04-06T20:35:12.645Z,32.69
2019-04-06T20:37:38.833Z,32.29
2019-04-06T20:40:06.372Z,32.25
2019-04-06T20:42:32.576Z,31.22
2019-04-06T20:44:59.148Z,30.75
2019-04-06T20:47:25.549Z,29.99
2019-04-06T20:49:51.824Z,29.80
2019-04-06T20:52:18.318Z,29.90
2019-04-06T20:54:44.512Z,31.04
2019-04-06T20:57:10.933Z,31.53
2019-04-06T20:59:37.252Z,31.47
2019-04-06T21:02:03.778Z,30.96
2019-04-06T21:04:29.947Z,31.62
2019-04-06T21:06:56.138Z,31.50
2019-04-06T21:09:22.458Z,31.48
2019-04-06T21:11:49.045Z,31.33
2019-04-06T21:14:15.828Z,32.39
2019-04-06T21:16:42.144Z,32.16
2019-04-06T21:19:08.318Z,32.70
2019-04-06T21:21:35.247Z,31.56
2019-04-06T21:24:01.635Z,31.74
2019-04-06T21:26:27.832Z,32.64
2019-04-06T21:28:53.990Z,32.81
2019-04-06T21:31:20.179Z,31.87
2019-04-06T21:33:46.761Z,32.18
2019-04-06T21:36:13.426Z,32.46
2019-04-06T21:38:40.068Z,32.47
2019-04-06T21:41:06.973Z,32.77
2019-04-06T21:43:33.408Z,32.29
2019-04-06T21:46:00.078Z,32.88
2019-04-06T21:48:27.009Z,32.61
2019-04-06T21:50:53.305Z,32.11
2019-04-06T21:53:19.742Z,31.95
2019-04-06T21:55:45.978Z,32.74
2019-04-06T21:58:12.239Z,32.85
2019-04-06T22:00:49.854Z,32.32
2019-04-06T22:03:16.676Z,32.37
2019-04-06T22:05:53.967Z,32.29
2019-04-06T22:08:23.269Z,31.74
2019-04-06T22:10:50.029Z,32.87
2019-04-06T22:13:16.368Z,33.02
2019-04-06T22:15:42.588Z,32.68
2019-04-06T22:18:08.853Z,34.60
2019-04-06T22:20:35.575Z,34.70
2019-04-06T22:23:01.932Z,34.34
2019-04-06T22:25:28.122Z,34.11
2019-04-06T22:27:54.280Z,34.17
2019-04-06T22:30:20.609Z,33.69
2019-04-06T22:32:46.914Z,32.88
2019-04-06T22:35:13.526Z,33.34
2019-04-06T22:37:40.619Z,33.61
2019-04-06T22:40:07.502Z,32.57
2019-04-06T22:42:34.262Z,31.58
2019-04-06T22:45:01.372Z,31.20
2019-04-06T22:47:27.691Z,30.98
2019-04-06T22:49:53.871Z,31.70
2019-04-06T22:52:20.512Z,30.99
2019-04-06T22:54:46.814Z,30.16
2019-04-06T22:57:13.503Z,30.69
2019-04-06T22:59:40.403Z,32.32
2019-04-06T23:02:06.750Z,32.12
2019-04-06T23:04:45.739Z,32.73
2019-04-06T23:07:05.702Z,31.67
2019-04-06T23:09:32.461Z,32.22
2019-04-06T23:11:58.772Z,31.47
2019-04-06T23:14:24.964Z,32.30
2019-04-06T23:16:51.236Z,32.34
2019-04-06T23:19:17.577Z,33.42
2019-04-06T23:21:44.119Z,33.10
2019-04-06T23:24:11.042Z,32.03
2019-04-06T23:26:38.099Z,32.72
2019-04-06T23:29:05.160Z,31.55
2019-04-06T23:31:31.511Z,31.17
2019-04-06T23:33:57.662Z,31.09
2019-04-06T23:36:23.883Z,31.02
2019-04-06T23:38:50.207Z,32.47
2019-04-06T23:41:16.430Z,32.60
2019-04-06T23:43:42.816Z,32.66
2019-04-06T23:46:09.024Z,32.00
2019-04-06T23:48:39.155Z,32.04
2019-04-06T23:51:05.489Z,31.71
2019-04-06T23:53:31.711Z,32.02
2019-04-06T23:55:58.615Z,32.68
2019-04-06T23:58:24.912Z,32.14
